Time;durP1;ratioP1;P1;durP2;ratioP2;P2;SDS_P1;SDS_P2;PMS_P1;PMS_P2;Temp;Humidity;BMP_temperature;BMP_pressure;BME280_temperature;BME280_humidity;BME280_pressure;Samples;Min_cycle;Max_cycle;Signal;HPM_P1;HPM_P2
2023/03/06 00:00:46;;;;;;;3.60;1.10;;;4.10;99.90;;;;;;6180100;23;20028;-77
2023/03/06 00:03:12;;;;;;;3.88;1.13;;;4.10;99.90;;;;;;6205789;23;20614;-77
2023/03/06 00:05:38;;;;;;;1.75;0.82;;;4.20;99.90;;;;;;6180301;23;20108;-78
2023/03/06 00:08:04;;;;;;;2.58;1.00;;;4.20;99.90;;;;;;6156018;23;20016;-78
2023/03/06 00:10:32;;;;;;;3.08;0.90;;;4.10;99.90;;;;;;6205079;23;20031;-80
2023/03/06 00:13:01;;;;;;;3.58;0.90;;;4.10;99.90;;;;;;6205262;23;20078;-78
2023/03/06 00:15:27;;;;;;;3.03;1.00;;;4.10;99.90;;;;;;6205342;23;20020;-80
2023/03/06 00:17:54;;;;;;;2.92;1.10;;;4.10;99.90;;;;;;6155888;23;20058;-78
2023/03/06 00:20:21;;;;;;;2.13;0.85;;;4.10;99.90;;;;;;6205762;23;20025;-78
2023/03/06 00:22:48;;;;;;;3.75;0.90;;;4.20;99.90;;;;;;6205264;23;20346;-77
2023/03/06 00:25:20;;;;;;;5.15;1.25;;;4.20;99.90;;;;;;6180609;23;20448;-78
2023/03/06 00:27:45;;;;;;;3.55;1.23;;;4.20;99.90;;;;;;6204388;23;20612;-79
2023/03/06 00:30:15;;;;;;;4.18;0.93;;;4.20;99.90;;;;;;6180852;23;20029;-78
2023/03/06 00:32:41;;;;;;;4.15;1.33;;;4.10;99.90;;;;;;6203811;23;20047;-77
2023/03/06 00:35:07;;;;;;;4.50;0.90;;;4.10;99.90;;;;;;6181389;23;20016;-78
2023/03/06 00:37:33;;;;;;;3.20;1.00;;;4.10;99.90;;;;;;6154763;23;20021;-79
2023/03/06 00:39:59;;;;;;;4.20;1.08;;;4.10;99.90;;;;;;6181086;23;20107;-78
2023/03/06 00:42:24;;;;;;;3.95;1.05;;;4.10;99.90;;;;;;6179586;23;20067;-79
2023/03/06 00:44:50;;;;;;;2.70;1.20;;;4.10;99.90;;;;;;6179660;23;20090;-78
2023/03/06 00:47:16;;;;;;;2.60;0.90;;;4.10;99.90;;;;;;6179916;23;20020;-79
2023/03/06 00:49:43;;;;;;;2.70;0.80;;;4.20;99.90;;;;;;6131041;23;20031;-79
2023/03/06 00:52:09;;;;;;;1.55;0.90;;;4.10;99.90;;;;;;6204213;23;20025;-77
2023/03/06 00:54:35;;;;;;;2.88;1.10;;;4.10;99.90;;;;;;6179582;23;20462;-77
2023/03/06 00:57:00;;;;;;;4.15;0.60;;;4.10;99.90;;;;;;6179500;23;20095;-77
2023/03/06 00:59:26;;;;;;;6.07;0.82;;;4.10;99.90;;;;;;6156069;23;20083;-77
2023/03/06 01:01:53;;;;;;;3.08;0.80;;;4.00;99.90;;;;;;6154789;23;20079;-81
2023/03/06 01:04:18;;;;;;;5.28;0.82;;;3.90;99.90;;;;;;6155993;23;20025;-79
2023/03/06 01:06:44;;;;;;;4.15;0.68;;;3.80;99.90;;;;;;6204052;23;20017;-80
2023/03/06 01:09:10;;;;;;;3.80;0.95;;;3.80;99.90;;;;;;6204523;23;20076;-77
2023/03/06 01:11:36;;;;;;;2.90;0.85;;;3.70;99.90;;;;;;6129409;23;20411;-78
2023/03/06 01:14:02;;;;;;;3.63;0.80;;;3.60;99.90;;;;;;6155121;23;20087;-81
2023/03/06 01:16:27;;;;;;;5.38;0.98;;;4.20;99.90;;;;;;6179250;23;20021;-77
2023/03/06 01:18:53;;;;;;;4.20;0.80;;;3.50;99.90;;;;;;6204181;23;20802;-78
2023/03/06 01:21:19;;;;;;;5.00;1.27;;;3.50;99.90;;;;;;6180481;23;20076;-77
2023/03/06 01:23:46;;;;;;;1.27;0.77;;;3.50;99.90;;;;;;6204948;23;20348;-78
2023/03/06 01:26:12;;;;;;;1.23;0.52;;;3.50;99.90;;;;;;6204985;23;20047;-78
2023/03/06 01:28:39;;;;;;;1.08;0.70;;;3.80;99.90;;;;;;6204279;23;20106;-77
2023/03/06 01:31:06;;;;;;;2.05;0.65;;;3.50;99.90;;;;;;6180073;23;20044;-77
2023/03/06 01:33:32;;;;;;;1.95;0.55;;;3.50;99.90;;;;;;6156037;23;20051;-77
2023/03/06 01:35:58;;;;;;;2.05;0.65;;;3.60;99.90;;;;;;6203907;23;20024;-79
2023/03/06 01:38:23;;;;;;;2.10;0.70;;;4.10;99.90;;;;;;6203679;23;20021;-78
2023/03/06 01:40:49;;;;;;;1.73;0.70;;;3.40;99.90;;;;;;6203451;23;20021;-79
2023/03/06 01:43:25;;;;;;;1.88;0.60;;;3.40;99.90;;;;;;6205317;23;20056;-78
2023/03/06 01:45:51;;;;;;;;;;;3.40;99.90;;;;;;6204847;23;20023;-78
2023/03/06 01:48:21;;;;;;;3.25;0.73;;;3.40;99.90;;;;;;6181131;23;19954;-79
2023/03/06 01:50:47;;;;;;;1.73;0.70;;;3.40;99.90;;;;;;6204933;23;20534;-78
2023/03/06 01:53:14;;;;;;;2.00;0.50;;;3.30;99.90;;;;;;6205105;23;20016;-78
2023/03/06 01:55:40;;;;;;;1.33;0.40;;;3.30;99.90;;;;;;6180635;23;20024;-78
2023/03/06 01:58:11;;;;;;;0.93;0.50;;;3.50;99.90;;;;;;6205751;23;20017;-77
2023/03/06 02:00:36;;;;;;;2.55;0.52;;;3.40;99.90;;;;;;6206084;23;20021;-79
2023/03/06 02:03:17;;;;;;;1.33;0.63;;;3.30;99.90;;;;;;6156327;23;20051;-77
2023/03/06 02:05:43;;;;;;;3.72;0.75;;;3.60;99.90;;;;;;6205354;23;20461;-79
2023/03/06 02:08:11;;;;;;;1.27;0.70;;;3.20;99.90;;;;;;6180741;23;20035;-77
2023/03/06 02:10:39;;;;;;;1.52;0.73;;;3.10;99.90;;;;;;6206850;23;20028;-80
2023/03/06 02:13:05;;;;;;;1.30;0.70;;;3.10;99.90;;;;;;6231698;23;20024;-79
2023/03/06 02:15:30;;;;;;;3.10;0.80;;;3.10;99.90;;;;;;6180848;23;20012;-78
2023/03/06 02:17:58;;;;;;;2.97;0.93;;;3.90;99.90;;;;;;6155618;23;20082;-78
2023/03/06 02:20:30;;;;;;;2.25;0.88;;;3.30;99.90;;;;;;6156965;23;20043;-78
2023/03/06 02:23:08;;;;;;;4.43;1.02;;;2.90;99.90;;;;;;6180446;23;20500;-78
2023/03/06 02:25:42;;;;;;;4.28;1.05;;;3.30;99.90;;;;;;6157484;23;20028;-77
2023/03/06 02:28:10;;;;;;;1.85;0.70;;;2.90;99.90;;;;;;6180646;23;20028;-78
2023/03/06 02:30:37;;;;;;;1.95;0.80;;;3.20;99.90;;;;;;6157464;23;20099;-78
2023/03/06 02:33:04;;;;;;;3.30;0.80;;;2.90;99.90;;;;;;6179717;23;20044;-78
2023/03/06 02:35:32;;;;;;;0.88;0.60;;;2.90;99.90;;;;;;6156511;23;20047;-77
2023/03/06 02:38:04;;;;;;;4.60;1.00;;;2.90;99.90;;;;;;6154909;23;20106;-77
2023/03/06 02:40:30;;;;;;;0.80;0.60;;;2.90;99.90;;;;;;6157522;23;20452;-76
2023/03/06 02:42:57;;;;;;;1.00;0.60;;;2.90;99.90;;;;;;6155966;23;20046;-79
2023/03/06 02:45:43;;;;;;;2.55;0.50;;;3.00;99.90;;;;;;6132371;23;20062;-79
2023/03/06 02:48:09;;;;;;;0.77;0.60;;;2.80;99.90;;;;;;6156099;23;20017;-80
2023/03/06 02:50:34;;;;;;;0.70;0.50;;;2.80;99.90;;;;;;6156971;23;20033;-80
2023/03/06 02:53:00;;;;;;;1.35;0.63;;;2.70;99.90;;;;;;6130167;23;20032;-79
2023/03/06 02:55:26;;;;;;;2.05;0.70;;;2.70;99.90;;;;;;6156491;23;20047;-79
2023/03/06 02:57:52;;;;;;;1.48;0.68;;;2.70;99.90;;;;;;6154749;23;20459;-79
2023/03/06 03:00:18;;;;;;;1.23;0.60;;;3.40;99.90;;;;;;6156543;23;20025;-78
2023/03/06 03:02:44;;;;;;;1.45;0.60;;;2.70;99.90;;;;;;6154868;23;20021;-80
2023/03/06 03:05:10;;;;;;;0.80;0.60;;;3.30;99.90;;;;;;6156170;23;20056;-79
2023/03/06 03:07:36;;;;;;;1.52;0.65;;;2.80;99.90;;;;;;6154809;23;20056;-79
2023/03/06 03:10:03;;;;;;;2.10;0.70;;;2.80;99.90;;;;;;6156020;23;20024;-78
2023/03/06 03:12:28;;;;;;;1.60;0.55;;;2.80;99.90;;;;;;6155717;23;20038;-79
2023/03/06 03:14:55;;;;;;;0.50;0.50;;;2.80;99.90;;;;;;6155693;23;20020;-79
2023/03/06 03:17:21;;;;;;;1.40;0.70;;;2.80;99.90;;;;;;6200660;23;20028;-79
2023/03/06 03:19:47;;;;;;;2.35;0.95;;;2.90;99.90;;;;;;6180677;23;20031;-79
2023/03/06 03:22:14;;;;;;;1.40;0.77;;;3.70;99.90;;;;;;6155698;23;20028;-77
2023/03/06 03:24:41;;;;;;;1.17;1.08;;;2.90;99.90;;;;;;6155899;23;20103;-79
2023/03/06 03:27:08;;;;;;;1.40;0.80;;;2.80;99.90;;;;;;6154932;23;20024;-77
2023/03/06 03:29:33;;;;;;;2.92;0.70;;;2.90;99.90;;;;;;6156415;23;20091;-77
2023/03/06 03:31:59;;;;;;;1.15;0.82;;;3.20;99.90;;;;;;6155525;23;20052;-77
2023/03/06 03:34:25;;;;;;;1.42;0.73;;;2.90;99.90;;;;;;6155277;23;20020;-79
2023/03/06 03:36:51;;;;;;;0.73;0.57;;;2.90;99.90;;;;;;6130314;23;20025;-77
2023/03/06 03:39:17;;;;;;;3.47;0.70;;;3.20;99.90;;;;;;6131264;23;20027;-77
2023/03/06 03:41:42;;;;;;;1.90;0.73;;;2.90;99.90;;;;;;6155947;23;20060;-77
2023/03/06 03:44:09;;;;;;;1.55;0.63;;;2.80;99.90;;;;;;6180226;23;20060;-77
2023/03/06 03:46:35;;;;;;;1.35;0.80;;;2.80;99.90;;;;;;6180126;23;20127;-78
2023/03/06 03:49:01;;;;;;;2.30;0.93;;;2.90;99.90;;;;;;6155483;23;20035;-77
2023/03/06 03:51:27;;;;;;;1.67;0.85;;;2.80;99.90;;;;;;6155505;23;20016;-77
2023/03/06 03:53:55;;;;;;;1.60;0.80;;;2.90;99.90;;;;;;6155003;23;20112;-77
2023/03/06 03:56:21;;;;;;;4.60;1.00;;;2.90;99.90;;;;;;6131335;23;20118;-77
2023/03/06 03:58:47;;;;;;;1.65;0.88;;;2.80;99.90;;;;;;6130160;23;20074;-79
2023/03/06 04:01:13;;;;;;;1.83;0.82;;;2.90;99.90;;;;;;6180353;23;20016;-77
2023/03/06 04:03:38;;;;;;;1.77;0.90;;;3.60;99.90;;;;;;6131087;23;20352;-77
2023/03/06 04:06:05;;;;;;;2.42;0.88;;;2.90;99.90;;;;;;6155767;23;20649;-77
2023/03/06 04:08:31;;;;;;;1.15;0.80;;;2.80;99.90;;;;;;6155367;23;20501;-77
2023/03/06 04:10:56;;;;;;;4.82;1.17;;;3.00;99.90;;;;;;6154729;23;20070;-77
2023/03/06 04:13:23;;;;;;;4.03;1.10;;;2.90;99.90;;;;;;6130791;23;20024;-77
2023/03/06 04:15:50;;;;;;;2.40;1.20;;;2.80;99.90;;;;;;6131636;23;20035;-79
2023/03/06 04:18:17;;;;;;;2.03;1.15;;;1.90;99.90;;;;;;6162634;23;20017;-77
2023/03/06 04:20:46;;;;;;;2.38;1.13;;;3.30;99.90;;;;;;6204995;23;20663;-78
2023/03/06 04:23:13;;;;;;;2.90;1.40;;;2.90;99.90;;;;;;6205338;23;20032;-77
2023/03/06 04:25:39;;;;;;;1.65;1.20;;;3.00;99.90;;;;;;6180144;23;20368;-77
2023/03/06 04:28:06;;;;;;;2.67;1.27;;;2.80;99.90;;;;;;6131004;23;20552;-79
2023/03/06 04:30:32;;;;;;;2.00;1.10;;;3.20;99.90;;;;;;6129544;23;20107;-78
2023/03/06 04:32:59;;;;;;;4.00;1.17;;;2.80;99.90;;;;;;6204738;23;20024;-77
2023/03/06 04:35:26;;;;;;;2.08;1.27;;;2.90;99.90;;;;;;6204825;23;20448;-76
2023/03/06 04:37:51;;;;;;;3.17;1.55;;;2.80;99.90;;;;;;6204949;23;20025;-79
2023/03/06 04:40:29;;;;;;;4.53;1.83;;;2.70;99.90;;;;;;6179579;23;20074;-78
2023/03/06 04:42:56;;;;;;;3.65;1.90;;;2.70;99.90;;;;;;6204863;23;20112;-77
2023/03/06 04:45:23;;;;;;;4.78;2.08;;;3.20;99.90;;;;;;6205302;23;20021;-77
2023/03/06 04:47:49;;;;;;;3.25;1.95;;;2.60;99.90;;;;;;6205387;23;20154;-77
2023/03/06 04:50:15;;;;;;;3.90;1.98;;;3.00;99.90;;;;;;6179722;23;20048;-79
2023/03/06 04:52:42;;;;;;;3.35;1.90;;;2.40;99.90;;;;;;6180971;23;20114;-77
2023/03/06 04:55:10;;;;;;;2.80;1.58;;;2.80;99.90;;;;;;6204728;23;20115;-77
2023/03/06 04:57:38;;;;;;;3.55;1.48;;;2.40;99.90;;;;;;6204540;23;20019;-77
2023/03/06 05:00:10;;;;;;;3.83;1.50;;;2.30;99.90;;;;;;6205378;23;20098;-77
2023/03/06 05:02:36;;;;;;;3.13;1.60;;;2.30;99.90;;;;;;6205615;23;20051;-77
2023/03/06 05:05:02;;;;;;;3.53;1.50;;;2.20;99.90;;;;;;6179673;23;20021;-77
2023/03/06 05:07:28;;;;;;;4.00;1.95;;;2.10;99.90;;;;;;6154924;23;20079;-76
2023/03/06 05:09:54;;;;;;;4.18;1.50;;;2.10;99.90;;;;;;6180437;23;20023;-79
2023/03/06 05:12:20;;;;;;;2.85;1.52;;;2.00;99.90;;;;;;6179840;23;20087;-78
2023/03/06 05:14:45;;;;;;;3.40;1.77;;;2.00;99.90;;;;;;6230897;23;20013;-77
2023/03/06 05:17:11;;;;;;;3.22;1.70;;;1.90;99.90;;;;;;6154409;23;20086;-77
2023/03/06 05:19:37;;;;;;;2.47;1.48;;;2.10;99.90;;;;;;6180771;23;20025;-77
2023/03/06 05:22:03;;;;;;;2.58;1.50;;;2.70;99.90;;;;;;6179303;23;20056;-76
2023/03/06 05:24:29;;;;;;;3.00;1.40;;;1.80;99.90;;;;;;6180493;23;20400;-77
2023/03/06 05:26:54;;;;;;;2.35;1.45;;;1.70;99.90;;;;;;6178280;23;20471;-77
2023/03/06 05:29:20;;;;;;;2.80;1.48;;;1.70;99.90;;;;;;6183247;23;20103;-79
2023/03/06 05:31:46;;;;;;;2.13;1.20;;;2.90;99.90;;;;;;6208105;23;20056;-77
2023/03/06 05:34:13;;;;;;;2.53;1.20;;;1.60;99.90;;;;;;6208515;23;20131;-77
2023/03/06 05:36:40;;;;;;;5.07;1.60;;;1.60;99.90;;;;;;6207463;23;20078;-77
2023/03/06 05:39:06;;;;;;;2.75;1.52;;;2.70;99.90;;;;;;6208151;23;20059;-77
2023/03/06 05:41:31;;;;;;;3.35;1.27;;;3.00;99.90;;;;;;6207763;23;20017;-78
2023/03/06 05:43:57;;;;;;;3.75;1.50;;;1.50;99.90;;;;;;6207632;23;20020;-79
2023/03/06 05:46:23;;;;;;;3.17;1.40;;;2.90;99.90;;;;;;6182806;23;20024;-77
2023/03/06 05:48:51;;;;;;;3.47;1.38;;;2.50;99.90;;;;;;6209506;23;20024;-77
2023/03/06 05:51:17;;;;;;;2.72;1.50;;;2.60;99.90;;;;;;6183670;23;20017;-79
2023/03/06 05:53:43;;;;;;;2.47;1.77;;;1.40;99.90;;;;;;6210348;23;20024;-77
2023/03/06 05:56:09;;;;;;;2.97;1.45;;;1.50;99.90;;;;;;6157370;23;20573;-76
2023/03/06 05:58:36;;;;;;;2.58;1.40;;;2.50;99.90;;;;;;6182740;23;20024;-77
2023/03/06 06:01:14;;;;;;;2.75;1.40;;;2.00;99.90;;;;;;6207823;23;20441;-76
2023/03/06 06:03:39;;;;;;;4.10;1.52;;;1.30;99.90;;;;;;6208355;23;20117;-77
2023/03/06 06:06:08;;;;;;;3.45;1.52;;;1.80;99.90;;;;;;6182359;23;20024;-76
2023/03/06 06:08:34;;;;;;;7.35;1.80;;;1.50;99.90;;;;;;6232974;23;20025;-77
2023/03/06 06:11:00;;;;;;;6.32;1.75;;;1.10;99.90;;;;;;6182609;23;20056;-79
2023/03/06 06:13:26;;;;;;;2.65;1.50;;;1.10;99.90;;;;;;6208340;23;20027;-77
2023/03/06 06:15:52;;;;;;;3.40;1.73;;;2.30;99.90;;;;;;6209144;23;20033;-76
2023/03/06 06:18:17;;;;;;;3.22;1.52;;;1.10;99.90;;;;;;6207084;23;20052;-78
2023/03/06 06:20:43;;;;;;;3.70;1.55;;;1.00;99.90;;;;;;6136278;23;20031;-79
2023/03/06 06:23:12;;;;;;;3.05;1.73;;;2.20;99.90;;;;;;6158650;23;20969;-78
2023/03/06 06:25:38;;;;;;;3.22;1.48;;;1.30;99.90;;;;;;6133838;23;20025;-80
2023/03/06 06:28:04;;;;;;;3.53;1.40;;;2.00;99.90;;;;;;6179127;23;20028;-78
2023/03/06 06:30:31;;;;;;;3.10;1.23;;;0.90;99.90;;;;;;6182480;23;20027;-80
2023/03/06 06:32:57;;;;;;;2.53;1.30;;;0.90;99.90;;;;;;6157152;23;20024;-84
2023/03/06 06:35:22;;;;;;;4.15;1.20;;;0.90;99.90;;;;;;6156740;23;20020;-82
2023/03/06 06:37:49;;;;;;;2.83;1.40;;;0.90;99.90;;;;;;6156945;23;20024;-82
2023/03/06 06:40:18;;;;;;;4.82;1.35;;;0.90;99.90;;;;;;6155689;23;20035;-83
2023/03/06 06:42:45;;;;;;;2.70;1.65;;;0.90;99.90;;;;;;6182884;23;20024;-82
2023/03/06 06:45:11;;;;;;;6.90;1.60;;;0.90;99.90;;;;;;6181596;23;20444;-83
2023/03/06 06:47:40;;;;;;;3.17;1.40;;;1.20;99.90;;;;;;6156987;23;20017;-81
2023/03/06 06:50:09;;;;;;;7.47;1.50;;;2.40;99.90;;;;;;6180010;23;20024;-81
2023/03/06 06:52:35;;;;;;;3.40;1.33;;;1.00;99.90;;;;;;6156540;23;20012;-81
2023/03/06 06:55:01;;;;;;;3.13;1.60;;;1.30;99.90;;;;;;6132342;23;20090;-83
2023/03/06 06:57:26;;;;;;;3.72;1.70;;;1.20;99.90;;;;;;6181474;23;20093;-82
2023/03/06 06:59:52;;;;;;;5.47;1.77;;;1.40;99.90;;;;;;6133521;23;20027;-81
2023/03/06 07:02:18;;;;;;;6.55;1.80;;;1.10;99.90;;;;;;6156466;23;20163;-84
2023/03/06 07:04:44;;;;;;;3.42;1.20;;;1.10;99.90;;;;;;6157006;23;20127;-81
2023/03/06 07:07:09;;;;;;;2.80;1.25;;;1.20;99.90;;;;;;6179239;23;20133;-81
2023/03/06 07:09:37;;;;;;;4.43;1.80;;;1.20;99.90;;;;;;6180283;23;20028;-81
2023/03/06 07:12:02;;;;;;;5.65;1.50;;;2.20;99.90;;;;;;6130667;23;20027;-84
2023/03/06 07:14:28;;;;;;;4.53;1.75;;;1.20;99.90;;;;;;6155344;23;20184;-80
2023/03/06 07:16:54;;;;;;;5.15;1.90;;;1.50;99.90;;;;;;6154733;23;20026;-78
2023/03/06 07:19:20;;;;;;;3.58;1.48;;;1.90;99.90;;;;;;6138036;23;20021;-79
2023/03/06 07:21:45;;;;;;;3.38;1.73;;;1.50;99.90;;;;;;6204713;23;20024;-79
2023/03/06 07:24:11;;;;;;;4.88;1.80;;;1.40;99.90;;;;;;6130257;23;20048;-79
2023/03/06 07:26:37;;;;;;;5.70;1.40;;;1.40;99.90;;;;;;6179104;23;20099;-80
2023/03/06 07:29:03;;;;;;;3.65;1.60;;;1.50;99.90;;;;;;6179694;23;20021;-79
2023/03/06 07:31:30;;;;;;;1.67;1.10;;;1.50;99.90;;;;;;6178713;23;20035;-79
2023/03/06 07:33:56;;;;;;;2.58;1.20;;;1.50;99.90;;;;;;6180240;23;20040;-78
2023/03/06 07:36:23;;;;;;;3.10;1.42;;;1.60;99.90;;;;;;6178349;23;20074;-78
2023/03/06 07:38:48;;;;;;;3.95;1.63;;;1.60;99.90;;;;;;6205612;23;20244;-77
2023/03/06 07:41:15;;;;;;;3.67;1.60;;;1.70;99.90;;;;;;6204651;23;20017;-78
2023/03/06 07:43:42;;;;;;;2.80;1.30;;;1.70;99.90;;;;;;6204752;23;20024;-77
2023/03/06 07:46:09;;;;;;;3.65;1.20;;;3.40;99.90;;;;;;6203644;23;20017;-80
2023/03/06 07:48:36;;;;;;;3.38;1.80;;;2.20;99.90;;;;;;6179596;23;20512;-78
2023/03/06 07:51:04;;;;;;;4.53;1.48;;;2.20;99.90;;;;;;6204477;23;20024;-77
2023/03/06 07:53:30;;;;;;;3.90;1.50;;;1.80;99.90;;;;;;6204597;23;20114;-79
2023/03/06 07:55:57;;;;;;;4.47;1.70;;;2.00;99.90;;;;;;6204166;23;20024;-79
2023/03/06 07:58:23;;;;;;;4.30;1.70;;;1.80;99.90;;;;;;6203692;23;20056;-78
2023/03/06 08:00:49;;;;;;;2.50;1.63;;;1.90;99.90;;;;;;6179131;23;20027;-77
2023/03/06 08:03:15;;;;;;;2.35;1.27;;;2.20;99.90;;;;;;6203770;23;20016;-78
2023/03/06 08:05:41;;;;;;;3.58;1.58;;;2.20;99.90;;;;;;6154917;23;20024;-78
2023/03/06 08:08:07;;;;;;;3.38;1.48;;;2.10;99.90;;;;;;6178524;23;20096;-80
2023/03/06 08:10:33;;;;;;;2.63;1.40;;;2.10;99.90;;;;;;6204661;23;20031;-81
2023/03/06 08:12:59;;;;;;;2.63;1.27;;;1.00;99.90;;;;;;6179205;23;20024;-78
2023/03/06 08:15:25;;;;;;;4.18;1.40;;;2.30;99.90;;;;;;6203022;23;20070;-79
2023/03/06 08:17:51;;;;;;;3.97;1.50;;;2.30;99.90;;;;;;6204238;23;20020;-81
2023/03/06 08:20:17;;;;;;;3.10;1.55;;;2.50;99.90;;;;;;6203900;23;20120;-78
2023/03/06 08:22:44;;;;;;;3.78;1.67;;;2.60;99.90;;;;;;6179986;23;20360;-77
2023/03/06 08:25:12;;;;;;;4.72;1.70;;;2.80;99.90;;;;;;6203916;23;20420;-82
2023/03/06 08:27:38;;;;;;;3.72;1.85;;;3.40;99.90;;;;;;6179037;23;20344;-81
2023/03/06 08:30:05;;;;;;;3.40;1.55;;;3.20;99.90;;;;;;6179283;23;20027;-81
2023/03/06 08:32:35;;;;;;;5.47;1.58;;;3.30;99.90;;;;;;6177830;23;20017;-78
2023/03/06 08:35:02;;;;;;;4.90;2.10;;;3.50;99.90;;;;;;6204606;23;20016;-77
2023/03/06 08:37:28;;;;;;;5.95;1.58;;;3.70;99.90;;;;;;6203737;23;20012;-78
2023/03/06 08:39:54;;;;;;;4.35;1.80;;;4.00;99.90;;;;;;6180681;23;20474;-77
2023/03/06 08:42:19;;;;;;;3.83;1.55;;;4.30;99.90;;;;;;6179413;23;20358;-78
2023/03/06 08:44:45;;;;;;;2.70;0.95;;;4.60;99.90;;;;;;6180213;23;20016;-78
2023/03/06 08:47:11;;;;;;;5.70;1.40;;;4.80;99.90;;;;;;6153711;23;20036;-79
2023/03/06 08:49:38;;;;;;;2.40;0.82;;;5.00;99.90;;;;;;6205334;23;20024;-79
2023/03/06 08:52:05;;;;;;;3.72;0.80;;;5.10;99.90;;;;;;6179757;23;20103;-80
2023/03/06 08:54:35;;;;;;;2.30;0.73;;;5.40;99.90;;;;;;6179157;23;20203;-77
2023/03/06 08:57:01;;;;;;;2.78;0.80;;;5.50;99.90;;;;;;6203254;23;20340;-80
2023/03/06 08:59:27;;;;;;;0.95;0.60;;;5.60;99.90;;;;;;6179977;23;20024;-81
2023/03/06 09:01:52;;;;;;;1.23;0.75;;;5.80;99.90;;;;;;6179459;23;20032;-82
2023/03/06 09:04:18;;;;;;;1.95;0.85;;;5.90;99.90;;;;;;6179026;23;20251;-80
2023/03/06 09:06:44;;;;;;;3.20;0.70;;;6.20;99.90;;;;;;6179093;23;20074;-80
2023/03/06 09:09:11;;;;;;;2.80;0.80;;;6.30;99.90;;;;;;6205353;23;20076;-80
2023/03/06 09:11:37;;;;;;;4.28;0.80;;;6.40;99.90;;;;;;6204650;23;20576;-80
2023/03/06 09:14:04;;;;;;;2.42;0.90;;;6.60;99.90;;;;;;6203997;23;20021;-81
2023/03/06 09:16:30;;;;;;;1.92;0.75;;;6.70;99.90;;;;;;6202269;23;20024;-80
2023/03/06 09:18:57;;;;;;;1.75;0.65;;;6.80;99.90;;;;;;6178800;23;20066;-80
2023/03/06 09:21:24;;;;;;;1.25;0.65;;;6.80;99.90;;;;;;6202701;23;20020;-80
2023/03/06 09:23:50;;;;;;;5.57;1.05;;;6.90;99.90;;;;;;6204306;23;20020;-81
2023/03/06 09:26:16;;;;;;;1.58;0.50;;;7.70;99.90;;;;;;6202620;23;20485;-83
2023/03/06 09:28:42;;;;;;;1.85;0.60;;;6.90;99.90;;;;;;6204613;23;20025;-81
2023/03/06 09:31:14;;;;;;;1.05;0.60;;;6.90;99.90;;;;;;6179293;23;20023;-80
2023/03/06 09:33:40;;;;;;;2.15;0.63;;;6.90;99.90;;;;;;6204277;23;20527;-81
2023/03/06 09:36:06;;;;;;;2.45;0.60;;;6.80;99.90;;;;;;6203404;23;20020;-80
2023/03/06 09:38:33;;;;;;;3.38;0.70;;;6.70;99.90;;;;;;6203561;23;20020;-80
2023/03/06 09:41:02;;;;;;;2.17;0.75;;;6.60;99.90;;;;;;6203641;23;20024;-80
2023/03/06 09:43:40;;;;;;;3.63;0.95;;;6.60;99.90;;;;;;6178809;23;20059;-81
2023/03/06 09:46:21;;;;;;;2.15;0.70;;;6.60;99.90;;;;;;6202887;23;20017;-81
2023/03/06 09:49:09;;;;;;;4.18;0.77;;;6.70;99.90;;;;;;6204731;23;20016;-87
2023/03/06 09:52:46;;;;;;;;;;;;;;;;;;;;;
2023/03/06 09:55:03;;;;;;;;;;;;;;;;;;;;;
2023/03/06 09:58:00;;;;;;;2.65;0.65;;;7.50;99.90;;;;;;6204385;23;20387;-87
2023/03/06 10:01:02;;;;;;;1.95;0.60;;;7.30;99.90;;;;;;6204664;23;20432;-87
2023/03/06 10:06:50;;;;;;;2.70;0.60;;;7.40;99.90;;;;;;6205979;23;20020;-87
2023/03/06 10:09:54;;;;;;;1.65;0.77;;;7.50;99.90;;;;;;6205904;23;20021;-87
2023/03/06 10:12:23;;;;;;;1.42;0.50;;;7.50;99.90;;;;;;6200746;23;20118;-83
2023/03/06 10:15:06;;;;;;;1.38;0.60;;;7.60;99.90;;;;;;6203490;23;20024;-81
2023/03/06 10:17:39;;;;;;;0.43;0.40;;;7.60;99.90;;;;;;6179076;23;20150;-81
2023/03/06 10:20:18;;;;;;;2.50;0.45;;;8.30;99.90;;;;;;6179843;23;20020;-81
2023/03/06 10:22:49;;;;;;;1.77;0.80;;;7.70;99.90;;;;;;6203492;23;20965;-83
2023/03/06 10:25:28;;;;;;;1.70;0.60;;;7.60;99.90;;;;;;6180629;23;20025;-82
2023/03/06 10:28:00;;;;;;;0.70;0.40;;;7.70;99.90;;;;;;6204959;23;20098;-81
2023/03/06 10:30:45;;;;;;;1.92;0.60;;;7.80;99.90;;;;;;6207860;23;20017;-81
2023/03/06 10:33:19;;;;;;;1.77;0.55;;;7.90;99.90;;;;;;6183705;23;20031;-79
2023/03/06 10:35:50;;;;;;;1.70;0.50;;;8.00;99.90;;;;;;6183119;23;20483;-82
2023/03/06 10:38:31;;;;;;;1.70;0.63;;;8.00;99.90;;;;;;6209049;23;20024;-80
2023/03/06 10:41:06;;;;;;;2.88;0.70;;;7.90;99.90;;;;;;6183500;23;20025;-80
2023/03/06 10:43:33;;;;;;;1.40;0.60;;;8.00;99.90;;;;;;6208244;23;20055;-80
2023/03/06 10:45:59;;;;;;;2.60;0.52;;;8.10;99.90;;;;;;6206455;23;20048;-81
2023/03/06 10:48:28;;;;;;;1.92;0.60;;;8.30;99.90;;;;;;6133052;23;20021;-80
2023/03/06 10:51:18;;;;;;;3.05;0.60;;;8.40;99.90;;;;;;6207861;23;20031;-81
2023/03/06 10:53:58;;;;;;;1.33;0.60;;;8.40;99.90;;;;;;6180134;23;20115;-81
2023/03/06 10:56:30;;;;;;;2.60;0.70;;;8.40;99.90;;;;;;6204179;23;20021;-81
2023/03/06 10:59:11;;;;;;;1.52;0.63;;;8.40;99.90;;;;;;6205479;23;20419;-81
2023/03/06 11:01:47;;;;;;;1.90;0.63;;;8.50;99.90;;;;;;6204090;23;20158;-81
2023/03/06 11:04:35;;;;;;;3.40;0.70;;;8.50;99.90;;;;;;6205033;23;20031;-83
2023/03/06 11:07:07;;;;;;;5.70;0.70;;;8.40;99.90;;;;;;6178727;23;20039;-81
2023/03/06 11:09:34;;;;;;;2.08;0.57;;;8.40;99.90;;;;;;6179301;23;20051;-80
2023/03/06 11:12:22;;;;;;;1.35;0.60;;;8.50;99.90;;;;;;6204515;23;20021;-81
2023/03/06 11:15:06;;;;;;;1.67;0.60;;;8.70;99.90;;;;;;6212146;23;20031;-88
2023/03/06 11:17:53;;;;;;;3.38;0.70;;;8.80;99.90;;;;;;6186625;23;20020;-81
2023/03/06 11:20:25;;;;;;;1.50;0.63;;;9.30;99.90;;;;;;6182733;23;20032;-83
2023/03/06 11:23:26;;;;;;;1.45;0.63;;;9.50;99.90;;;;;;6183822;23;20040;-81
2023/03/06 11:26:19;;;;;;;1.50;0.50;;;9.60;99.90;;;;;;6208397;23;20024;-82
2023/03/06 11:29:22;;;;;;;2.88;0.60;;;10.00;99.90;;;;;;6184308;23;20028;-83
2023/03/06 11:32:01;;;;;;;2.78;0.80;;;10.30;99.90;;;;;;6209817;23;20024;-82
2023/03/06 11:34:39;;;;;;;1.33;0.60;;;10.90;99.90;;;;;;6182607;23;20020;-84
2023/03/06 11:37:22;;;;;;;4.03;0.95;;;11.30;99.90;;;;;;6181271;23;20024;-82
2023/03/06 11:40:25;;;;;;;3.08;0.50;;;11.50;99.90;;;;;;6207258;23;20067;-82
2023/03/06 11:43:01;;;;;;;3.55;0.68;;;12.00;99.90;;;;;;6205286;23;20013;-85
2023/03/06 11:45:50;;;;;;;2.10;0.70;;;11.70;99.90;;;;;;6207867;23;20480;-84
2023/03/06 11:49:06;;;;;;;1.67;0.75;;;13.00;99.90;;;;;;6234379;23;20031;-83
2023/03/06 11:51:38;;;;;;;2.47;0.73;;;13.50;99.80;;;;;;6178915;23;20021;-82
2023/03/06 11:54:05;;;;;;;3.42;0.90;;;14.20;99.70;;;;;;6209465;23;20107;-82
2023/03/06 11:57:07;;;;;;;1.75;0.80;;;14.50;99.00;;;;;;6208821;23;20024;-83
2023/03/06 11:59:59;;;;;;;2.33;0.73;;;14.90;97.70;;;;;;6182033;23;20025;-83
2023/03/06 12:02:46;;;;;;;3.55;0.90;;;15.60;96.90;;;;;;6184547;23;20070;-83
2023/03/06 12:05:49;;;;;;;1.83;0.77;;;15.50;95.50;;;;;;6206926;23;20020;-81
2023/03/06 12:08:38;;;;;;;3.92;1.25;;;15.70;95.00;;;;;;6206799;23;20406;-80
2023/03/06 12:11:14;;;;;;;1.92;0.73;;;15.50;93.50;;;;;;6207158;23;20017;-81
2023/03/06 12:13:52;;;;;;;2.22;0.70;;;15.30;94.70;;;;;;6205927;23;20031;-80
2023/03/06 12:16:57;;;;;;;3.40;0.80;;;15.40;94.60;;;;;;6207410;23;20027;-81
2023/03/06 12:20:18;;;;;;;3.72;0.98;;;15.20;94.00;;;;;;6136688;23;20020;-81
2023/03/06 12:22:53;;;;;;;3.13;1.48;;;14.70;94.00;;;;;;6176027;23;20028;-81
2023/03/06 12:25:35;;;;;;;1.95;0.80;;;14.20;95.10;;;;;;6207046;23;20024;-80
2023/03/06 12:28:18;;;;;;;2.22;0.65;;;13.50;94.50;;;;;;6206394;23;20024;-81
2023/03/06 12:31:16;;;;;;;2.97;0.75;;;12.70;96.40;;;;;;6180814;23;20021;-81
2023/03/06 12:34:00;;;;;;;2.38;0.70;;;11.90;97.50;;;;;;6205804;23;20020;-80
2023/03/06 12:36:35;;;;;;;3.28;0.98;;;11.30;99.10;;;;;;6181199;23;20028;-80
2023/03/06 12:39:27;;;;;;;1.90;0.80;;;10.90;99.90;;;;;;6181509;23;20025;-82
2023/03/06 12:42:15;;;;;;;2.35;0.90;;;10.60;99.90;;;;;;6206955;23;20313;-81
2023/03/06 12:44:47;;;;;;;4.22;1.08;;;10.30;99.90;;;;;;6206491;23;20364;-82
2023/03/06 12:47:20;;;;;;;3.65;0.80;;;10.30;99.90;;;;;;6181333;23;20086;-80
2023/03/06 12:50:16;;;;;;;2.08;0.80;;;10.60;99.90;;;;;;6206821;23;20024;-81
2023/03/06 12:52:43;;;;;;;4.57;1.13;;;10.80;99.90;;;;;;6203757;23;20377;-81
2023/03/06 12:55:16;;;;;;;2.63;0.80;;;10.90;99.90;;;;;;6132047;23;20028;-80
2023/03/06 12:57:42;;;;;;;1.38;0.80;;;10.70;99.90;;;;;;6205821;23;20026;-79
2023/03/06 13:00:34;;;;;;;4.60;1.02;;;10.50;99.90;;;;;;6157147;23;20025;-80
2023/03/06 13:03:12;;;;;;;2.15;0.95;;;10.30;99.90;;;;;;6206583;23;20326;-82
2023/03/06 13:06:04;;;;;;;1.60;1.00;;;11.00;99.90;;;;;;6180651;23;20021;-81
2023/03/06 13:08:56;;;;;;;3.35;1.17;;;9.90;99.90;;;;;;6206754;23;20021;-81
2023/03/06 13:11:57;;;;;;;2.80;1.00;;;9.60;99.90;;;;;;6180626;23;20017;-81
2023/03/06 13:14:37;;;;;;;1.20;0.80;;;9.40;99.90;;;;;;6206507;23;20697;-81
2023/03/06 13:17:33;;;;;;;2.20;0.90;;;9.10;99.90;;;;;;6206136;23;20025;-81
2023/03/06 13:20:15;;;;;;;3.72;1.00;;;8.90;99.90;;;;;;6229355;23;20020;-80